sensor_id;sensor_type;location;lat;lon;timestamp;P1;durP1;ratioP1;P2;durP2;ratioP2
67556;SDS011;54387;53.526;49.300;2023-12-22T00:00:45;7.40;;;2.95;;
67556;SDS011;54387;53.526;49.300;2023-12-22T00:03:16;8.32;;;3.75;;
67556;SDS011;54387;53.526;49.300;2023-12-22T00:05:42;13.05;;;4.93;;
67556;SDS011;54387;53.526;49.300;2023-12-22T00:08:08;7.15;;;3.00;;
67556;SDS011;54387;53.526;49.300;2023-12-22T00:10:34;13.63;;;4.38;;
67556;SDS011;54387;53.526;49.300;2023-12-22T00:13:00;13.55;;;5.05;;
67556;SDS011;54387;53.526;49.300;2023-12-22T00:15:27;11.75;;;4.70;;
67556;SDS011;54387;53.526;49.300;2023-12-22T00:17:53;8.65;;;4.93;;
67556;SDS011;54387;53.526;49.300;2023-12-22T00:20:20;7.95;;;4.40;;
67556;SDS011;54387;53.526;49.300;2023-12-22T00:22:46;12.98;;;5.10;;
67556;SDS011;54387;53.526;49.300;2023-12-22T00:25:13;10.38;;;4.82;;
67556;SDS011;54387;53.526;49.300;2023-12-22T00:27:39;10.73;;;5.55;;
67556;SDS011;54387;53.526;49.300;2023-12-22T00:30:06;10.40;;;5.28;;
67556;SDS011;54387;53.526;49.300;2023-12-22T00:32:33;9.23;;;5.50;;
67556;SDS011;54387;53.526;49.300;2023-12-22T00:34:59;12.02;;;6.22;;
67556;SDS011;54387;53.526;49.300;2023-12-22T00:37:26;10.43;;;5.07;;
67556;SDS011;54387;53.526;49.300;2023-12-22T00:39:52;14.10;;;6.28;;
67556;SDS011;54387;53.526;49.300;2023-12-22T00:42:18;11.02;;;4.85;;
67556;SDS011;54387;53.526;49.300;2023-12-22T00:44:45;9.77;;;4.93;;
67556;SDS011;54387;53.526;49.300;2023-12-22T00:47:11;14.00;;;6.40;;
67556;SDS011;54387;53.526;49.300;2023-12-22T00:49:38;15.07;;;6.88;;
67556;SDS011;54387;53.526;49.300;2023-12-22T00:52:04;10.18;;;5.78;;
67556;SDS011;54387;53.526;49.300;2023-12-22T00:54:31;15.27;;;6.57;;
67556;SDS011;54387;53.526;49.300;2023-12-22T00:56:57;14.60;;;6.53;;
67556;SDS011;54387;53.526;49.300;2023-12-22T00:59:24;15.75;;;6.60;;
67556;SDS011;54387;53.526;49.300;2023-12-22T01:01:50;10.48;;;5.13;;
67556;SDS011;54387;53.526;49.300;2023-12-22T01:04:17;12.23;;;5.85;;
67556;SDS011;54387;53.526;49.300;2023-12-22T01:06:43;16.45;;;6.18;;
67556;SDS011;54387;53.526;49.300;2023-12-22T01:09:10;15.15;;;6.38;;
67556;SDS011;54387;53.526;49.300;2023-12-22T01:11:36;12.55;;;5.68;;
67556;SDS011;54387;53.526;49.300;2023-12-22T01:14:02;11.40;;;6.10;;
67556;SDS011;54387;53.526;49.300;2023-12-22T01:16:29;12.63;;;5.53;;
67556;SDS011;54387;53.526;49.300;2023-12-22T01:18:55;13.82;;;6.05;;
67556;SDS011;54387;53.526;49.300;2023-12-22T01:21:22;11.95;;;6.15;;
67556;SDS011;54387;53.526;49.300;2023-12-22T01:23:48;10.18;;;5.82;;
67556;SDS011;54387;53.526;49.300;2023-12-22T01:26:14;11.95;;;5.78;;
67556;SDS011;54387;53.526;49.300;2023-12-22T01:28:41;8.93;;;4.57;;
67556;SDS011;54387;53.526;49.300;2023-12-22T01:31:07;10.18;;;5.20;;
67556;SDS011;54387;53.526;49.300;2023-12-22T01:33:34;15.30;;;5.95;;
67556;SDS011;54387;53.526;49.300;2023-12-22T01:36:00;11.90;;;6.22;;
67556;SDS011;54387;53.526;49.300;2023-12-22T01:38:27;9.55;;;5.55;;
67556;SDS011;54387;53.526;49.300;2023-12-22T01:40:53;13.75;;;6.28;;
67556;SDS011;54387;53.526;49.300;2023-12-22T01:43:19;11.38;;;6.13;;
67556;SDS011;54387;53.526;49.300;2023-12-22T01:45:47;15.27;;;5.63;;
67556;SDS011;54387;53.526;49.300;2023-12-22T01:48:17;16.88;;;6.70;;
67556;SDS011;54387;53.526;49.300;2023-12-22T01:50:44;10.88;;;5.68;;
67556;SDS011;54387;53.526;49.300;2023-12-22T01:53:10;11.35;;;6.18;;
67556;SDS011;54387;53.526;49.300;2023-12-22T01:55:37;9.95;;;5.38;;
67556;SDS011;54387;53.526;49.300;2023-12-22T01:58:04;13.13;;;5.25;;
67556;SDS011;54387;53.526;49.300;2023-12-22T02:00:30;14.05;;;5.60;;
67556;SDS011;54387;53.526;49.300;2023-12-22T02:02:56;14.20;;;6.32;;
67556;SDS011;54387;53.526;49.300;2023-12-22T02:05:23;12.68;;;6.03;;
67556;SDS011;54387;53.526;49.300;2023-12-22T02:07:54;13.93;;;5.78;;
67556;SDS011;54387;53.526;49.300;2023-12-22T02:10:21;10.80;;;5.35;;
67556;SDS011;54387;53.526;49.300;2023-12-22T02:12:48;10.10;;;5.38;;
67556;SDS011;54387;53.526;49.300;2023-12-22T02:15:14;15.07;;;5.85;;
67556;SDS011;54387;53.526;49.300;2023-12-22T02:20:21;18.08;;;5.57;;
67556;SDS011;54387;53.526;49.300;2023-12-22T02:22:54;14.07;;;6.43;;
67556;SDS011;54387;53.526;49.300;2023-12-22T02:25:20;12.05;;;5.55;;
67556;SDS011;54387;53.526;49.300;2023-12-22T02:27:50;11.20;;;5.25;;
67556;SDS011;54387;53.526;49.300;2023-12-22T02:30:26;12.13;;;4.93;;
67556;SDS011;54387;53.526;49.300;2023-12-22T02:33:01;9.98;;;5.15;;
67556;SDS011;54387;53.526;49.300;2023-12-22T02:35:32;15.10;;;6.53;;
67556;SDS011;54387;53.526;49.300;2023-12-22T02:38:02;12.25;;;5.22;;
67556;SDS011;54387;53.526;49.300;2023-12-22T02:40:31;15.63;;;5.97;;
67556;SDS011;54387;53.526;49.300;2023-12-22T02:42:58;17.98;;;6.55;;
67556;SDS011;54387;53.526;49.300;2023-12-22T02:45:26;15.10;;;6.80;;
67556;SDS011;54387;53.526;49.300;2023-12-22T02:47:53;14.70;;;6.03;;
67556;SDS011;54387;53.526;49.300;2023-12-22T02:50:19;8.45;;;4.60;;
67556;SDS011;54387;53.526;49.300;2023-12-22T02:52:46;15.40;;;5.78;;
67556;SDS011;54387;53.526;49.300;2023-12-22T02:55:12;18.83;;;6.30;;
67556;SDS011;54387;53.526;49.300;2023-12-22T02:57:39;14.27;;;6.93;;
67556;SDS011;54387;53.526;49.300;2023-12-22T03:00:05;13.02;;;6.95;;
67556;SDS011;54387;53.526;49.300;2023-12-22T03:02:32;13.68;;;6.93;;
67556;SDS011;54387;53.526;49.300;2023-12-22T03:04:59;15.65;;;7.35;;
67556;SDS011;54387;53.526;49.300;2023-12-22T03:07:25;15.63;;;7.28;;
67556;SDS011;54387;53.526;49.300;2023-12-22T03:09:52;21.92;;;7.63;;
67556;SDS011;54387;53.526;49.300;2023-12-22T03:12:18;14.98;;;6.13;;
67556;SDS011;54387;53.526;49.300;2023-12-22T03:14:45;15.90;;;7.43;;
67556;SDS011;54387;53.526;49.300;2023-12-22T03:17:11;15.27;;;6.85;;
67556;SDS011;54387;53.526;49.300;2023-12-22T03:19:37;18.15;;;6.82;;
67556;SDS011;54387;53.526;49.300;2023-12-22T03:22:04;17.00;;;7.70;;
67556;SDS011;54387;53.526;49.300;2023-12-22T03:24:30;19.45;;;8.65;;
67556;SDS011;54387;53.526;49.300;2023-12-22T03:26:57;19.60;;;7.95;;
67556;SDS011;54387;53.526;49.300;2023-12-22T03:29:23;18.92;;;7.40;;
67556;SDS011;54387;53.526;49.300;2023-12-22T03:31:49;18.50;;;7.85;;
67556;SDS011;54387;53.526;49.300;2023-12-22T03:34:15;19.13;;;8.05;;
67556;SDS011;54387;53.526;49.300;2023-12-22T03:36:41;13.82;;;5.95;;
67556;SDS011;54387;53.526;49.300;2023-12-22T03:39:08;17.98;;;8.32;;
67556;SDS011;54387;53.526;49.300;2023-12-22T03:41:34;14.70;;;7.28;;
67556;SDS011;54387;53.526;49.300;2023-12-22T03:44:00;20.83;;;8.20;;
67556;SDS011;54387;53.526;49.300;2023-12-22T03:46:27;15.95;;;7.47;;
67556;SDS011;54387;53.526;49.300;2023-12-22T03:48:53;11.20;;;5.80;;
67556;SDS011;54387;53.526;49.300;2023-12-22T03:51:19;22.50;;;8.18;;
67556;SDS011;54387;53.526;49.300;2023-12-22T03:53:45;16.15;;;7.05;;
67556;SDS011;54387;53.526;49.300;2023-12-22T03:56:11;13.68;;;7.40;;
67556;SDS011;54387;53.526;49.300;2023-12-22T03:58:37;14.30;;;7.22;;
67556;SDS011;54387;53.526;49.300;2023-12-22T04:01:04;20.25;;;7.53;;
67556;SDS011;54387;53.526;49.300;2023-12-22T04:03:33;19.25;;;8.63;;
67556;SDS011;54387;53.526;49.300;2023-12-22T04:06:03;15.70;;;6.97;;
67556;SDS011;54387;53.526;49.300;2023-12-22T04:08:29;13.00;;;6.10;;
67556;SDS011;54387;53.526;49.300;2023-12-22T04:10:56;13.82;;;6.47;;
67556;SDS011;54387;53.526;49.300;2023-12-22T04:13:22;15.38;;;7.78;;
67556;SDS011;54387;53.526;49.300;2023-12-22T04:15:48;13.43;;;5.72;;
67556;SDS011;54387;53.526;49.300;2023-12-22T04:18:14;15.48;;;5.80;;
67556;SDS011;54387;53.526;49.300;2023-12-22T04:20:41;13.60;;;7.50;;
67556;SDS011;54387;53.526;49.300;2023-12-22T04:23:08;12.05;;;6.82;;
67556;SDS011;54387;53.526;49.300;2023-12-22T04:25:34;13.00;;;5.63;;
67556;SDS011;54387;53.526;49.300;2023-12-22T04:28:01;14.77;;;7.20;;
67556;SDS011;54387;53.526;49.300;2023-12-22T04:30:27;15.98;;;6.82;;
67556;SDS011;54387;53.526;49.300;2023-12-22T04:32:54;16.23;;;6.40;;
67556;SDS011;54387;53.526;49.300;2023-12-22T04:35:21;10.65;;;6.00;;
67556;SDS011;54387;53.526;49.300;2023-12-22T04:37:48;17.42;;;8.00;;
67556;SDS011;54387;53.526;49.300;2023-12-22T04:40:15;13.88;;;6.22;;
67556;SDS011;54387;53.526;49.300;2023-12-22T04:42:42;12.32;;;5.78;;
67556;SDS011;54387;53.526;49.300;2023-12-22T04:45:08;8.82;;;5.35;;
67556;SDS011;54387;53.526;49.300;2023-12-22T04:47:35;10.38;;;6.45;;
67556;SDS011;54387;53.526;49.300;2023-12-22T04:50:02;12.75;;;6.40;;
67556;SDS011;54387;53.526;49.300;2023-12-22T04:52:29;12.02;;;6.57;;
67556;SDS011;54387;53.526;49.300;2023-12-22T04:54:56;17.48;;;7.45;;
67556;SDS011;54387;53.526;49.300;2023-12-22T04:57:22;12.27;;;5.25;;
67556;SDS011;54387;53.526;49.300;2023-12-22T04:59:49;15.80;;;5.10;;
67556;SDS011;54387;53.526;49.300;2023-12-22T05:02:15;13.45;;;5.78;;
67556;SDS011;54387;53.526;49.300;2023-12-22T05:04:42;11.50;;;5.88;;
67556;SDS011;54387;53.526;49.300;2023-12-22T05:07:08;12.52;;;6.93;;
67556;SDS011;54387;53.526;49.300;2023-12-22T05:09:36;10.75;;;5.15;;
67556;SDS011;54387;53.526;49.300;2023-12-22T05:12:03;12.60;;;5.95;;
67556;SDS011;54387;53.526;49.300;2023-12-22T05:14:29;13.50;;;6.38;;
67556;SDS011;54387;53.526;49.300;2023-12-22T05:16:56;14.07;;;7.10;;
67556;SDS011;54387;53.526;49.300;2023-12-22T05:19:22;14.73;;;7.00;;
67556;SDS011;54387;53.526;49.300;2023-12-22T05:21:48;13.88;;;7.07;;
67556;SDS011;54387;53.526;49.300;2023-12-22T05:24:21;14.70;;;6.43;;
67556;SDS011;54387;53.526;49.300;2023-12-22T05:26:48;10.85;;;5.85;;
67556;SDS011;54387;53.526;49.300;2023-12-22T05:29:14;14.43;;;5.75;;
67556;SDS011;54387;53.526;49.300;2023-12-22T05:31:40;12.40;;;5.97;;
67556;SDS011;54387;53.526;49.300;2023-12-22T05:34:07;15.52;;;6.20;;
67556;SDS011;54387;53.526;49.300;2023-12-22T05:36:35;11.27;;;5.47;;
67556;SDS011;54387;53.526;49.300;2023-12-22T05:39:03;15.30;;;7.53;;
67556;SDS011;54387;53.526;49.300;2023-12-22T05:41:29;14.65;;;6.82;;
67556;SDS011;54387;53.526;49.300;2023-12-22T05:43:55;13.32;;;6.70;;
67556;SDS011;54387;53.526;49.300;2023-12-22T05:46:22;10.07;;;5.50;;
67556;SDS011;54387;53.526;49.300;2023-12-22T05:48:48;11.63;;;5.82;;
67556;SDS011;54387;53.526;49.300;2023-12-22T05:51:14;11.18;;;5.55;;
67556;SDS011;54387;53.526;49.300;2023-12-22T05:53:40;16.80;;;6.65;;
67556;SDS011;54387;53.526;49.300;2023-12-22T05:56:16;10.10;;;5.72;;
67556;SDS011;54387;53.526;49.300;2023-12-22T05:58:46;12.95;;;6.45;;
67556;SDS011;54387;53.526;49.300;2023-12-22T06:01:14;21.08;;;8.13;;
67556;SDS011;54387;53.526;49.300;2023-12-22T06:03:41;15.45;;;7.35;;
67556;SDS011;54387;53.526;49.300;2023-12-22T06:06:07;12.88;;;5.75;;
67556;SDS011;54387;53.526;49.300;2023-12-22T06:08:33;8.48;;;4.32;;
67556;SDS011;54387;53.526;49.300;2023-12-22T06:11:00;15.23;;;6.45;;
67556;SDS011;54387;53.526;49.300;2023-12-22T06:13:26;8.57;;;5.20;;
67556;SDS011;54387;53.526;49.300;2023-12-22T06:15:52;13.45;;;6.53;;
67556;SDS011;54387;53.526;49.300;2023-12-22T06:18:18;12.18;;;6.38;;
67556;SDS011;54387;53.526;49.300;2023-12-22T06:20:45;13.60;;;6.50;;
67556;SDS011;54387;53.526;49.300;2023-12-22T06:23:12;18.83;;;6.75;;
67556;SDS011;54387;53.526;49.300;2023-12-22T06:25:38;11.65;;;5.88;;
67556;SDS011;54387;53.526;49.300;2023-12-22T06:28:04;9.93;;;5.97;;
67556;SDS011;54387;53.526;49.300;2023-12-22T06:30:31;12.38;;;5.50;;
67556;SDS011;54387;53.526;49.300;2023-12-22T06:32:57;13.20;;;5.70;;
67556;SDS011;54387;53.526;49.300;2023-12-22T06:35:23;11.10;;;5.25;;
67556;SDS011;54387;53.526;49.300;2023-12-22T06:37:51;16.10;;;5.78;;
67556;SDS011;54387;53.526;49.300;2023-12-22T06:40:17;8.80;;;5.10;;
67556;SDS011;54387;53.526;49.300;2023-12-22T06:42:46;10.85;;;5.13;;
67556;SDS011;54387;53.526;49.300;2023-12-22T06:45:13;12.90;;;5.85;;
67556;SDS011;54387;53.526;49.300;2023-12-22T06:47:39;11.23;;;5.65;;
67556;SDS011;54387;53.526;49.300;2023-12-22T06:50:05;11.80;;;5.13;;
67556;SDS011;54387;53.526;49.300;2023-12-22T06:52:33;10.30;;;5.90;;
67556;SDS011;54387;53.526;49.300;2023-12-22T06:54:59;10.75;;;6.15;;
67556;SDS011;54387;53.526;49.300;2023-12-22T06:57:25;12.90;;;4.57;;
67556;SDS011;54387;53.526;49.300;2023-12-22T06:59:52;13.77;;;5.90;;
67556;SDS011;54387;53.526;49.300;2023-12-22T07:02:18;13.32;;;6.70;;
67556;SDS011;54387;53.526;49.300;2023-12-22T07:07:37;11.23;;;5.80;;
67556;SDS011;54387;53.526;49.300;2023-12-22T07:10:03;13.63;;;6.72;;
67556;SDS011;54387;53.526;49.300;2023-12-22T07:12:30;10.25;;;6.70;;
67556;SDS011;54387;53.526;49.300;2023-12-22T07:14:56;13.65;;;6.10;;
67556;SDS011;54387;53.526;49.300;2023-12-22T07:17:23;11.00;;;6.45;;
67556;SDS011;54387;53.526;49.300;2023-12-22T07:19:50;10.77;;;5.97;;
67556;SDS011;54387;53.526;49.300;2023-12-22T07:22:17;11.57;;;6.18;;
67556;SDS011;54387;53.526;49.300;2023-12-22T07:24:45;14.50;;;7.63;;
67556;SDS011;54387;53.526;49.300;2023-12-22T07:27:12;13.52;;;7.50;;
67556;SDS011;54387;53.526;49.300;2023-12-22T07:29:38;8.93;;;5.35;;
67556;SDS011;54387;53.526;49.300;2023-12-22T07:32:05;14.13;;;6.47;;
67556;SDS011;54387;53.526;49.300;2023-12-22T07:34:31;17.08;;;6.72;;
67556;SDS011;54387;53.526;49.300;2023-12-22T07:36:58;11.40;;;5.57;;
67556;SDS011;54387;53.526;49.300;2023-12-22T07:39:25;16.50;;;7.85;;
67556;SDS011;54387;53.526;49.300;2023-12-22T07:41:52;11.98;;;6.00;;
67556;SDS011;54387;53.526;49.300;2023-12-22T07:44:18;10.77;;;5.90;;
67556;SDS011;54387;53.526;49.300;2023-12-22T07:46:44;15.45;;;7.18;;
67556;SDS011;54387;53.526;49.300;2023-12-22T07:49:11;10.20;;;4.80;;
67556;SDS011;54387;53.526;49.300;2023-12-22T07:51:38;18.23;;;7.93;;
67556;SDS011;54387;53.526;49.300;2023-12-22T07:54:04;13.18;;;6.63;;
67556;SDS011;54387;53.526;49.300;2023-12-22T07:56:32;13.85;;;7.00;;
67556;SDS011;54387;53.526;49.300;2023-12-22T07:58:58;12.10;;;4.85;;
67556;SDS011;54387;53.526;49.300;2023-12-22T08:01:25;12.82;;;7.38;;
67556;SDS011;54387;53.526;49.300;2023-12-22T08:03:52;12.65;;;6.70;;
67556;SDS011;54387;53.526;49.300;2023-12-22T08:06:18;15.38;;;8.18;;
67556;SDS011;54387;53.526;49.300;2023-12-22T08:08:45;13.00;;;6.50;;
67556;SDS011;54387;53.526;49.300;2023-12-22T08:11:11;11.48;;;4.72;;
67556;SDS011;54387;53.526;49.300;2023-12-22T08:13:37;10.52;;;5.20;;
67556;SDS011;54387;53.526;49.300;2023-12-22T08:16:04;15.05;;;7.75;;
67556;SDS011;54387;53.526;49.300;2023-12-22T08:18:30;16.55;;;7.32;;
67556;SDS011;54387;53.526;49.300;2023-12-22T08:20:57;14.32;;;6.05;;
67556;SDS011;54387;53.526;49.300;2023-12-22T08:23:24;11.85;;;5.40;;
67556;SDS011;54387;53.526;49.300;2023-12-22T08:25:50;10.73;;;5.43;;
67556;SDS011;54387;53.526;49.300;2023-12-22T08:28:16;12.88;;;5.25;;
67556;SDS011;54387;53.526;49.300;2023-12-22T08:30:43;15.07;;;5.35;;
67556;SDS011;54387;53.526;49.300;2023-12-22T08:33:09;10.80;;;5.43;;
67556;SDS011;54387;53.526;49.300;2023-12-22T08:35:35;17.95;;;6.55;;
67556;SDS011;54387;53.526;49.300;2023-12-22T08:38:02;16.65;;;5.63;;
67556;SDS011;54387;53.526;49.300;2023-12-22T08:40:28;11.05;;;5.95;;
67556;SDS011;54387;53.526;49.300;2023-12-22T08:42:54;10.30;;;4.68;;
67556;SDS011;54387;53.526;49.300;2023-12-22T08:45:25;12.48;;;5.75;;
67556;SDS011;54387;53.526;49.300;2023-12-22T08:47:54;12.35;;;5.22;;
67556;SDS011;54387;53.526;49.300;2023-12-22T08:50:21;20.88;;;5.85;;
67556;SDS011;54387;53.526;49.300;2023-12-22T08:52:47;15.75;;;5.50;;
67556;SDS011;54387;53.526;49.300;2023-12-22T08:55:14;14.32;;;5.72;;
67556;SDS011;54387;53.526;49.300;2023-12-22T08:57:41;19.80;;;6.07;;
67556;SDS011;54387;53.526;49.300;2023-12-22T09:00:08;14.88;;;5.78;;
67556;SDS011;54387;53.526;49.300;2023-12-22T09:02:34;16.75;;;6.80;;
67556;SDS011;54387;53.526;49.300;2023-12-22T09:05:01;15.95;;;5.93;;
67556;SDS011;54387;53.526;49.300;2023-12-22T09:07:27;16.92;;;7.18;;
67556;SDS011;54387;53.526;49.300;2023-12-22T09:09:53;13.25;;;4.90;;
67556;SDS011;54387;53.526;49.300;2023-12-22T09:12:19;21.55;;;6.75;;
67556;SDS011;54387;53.526;49.300;2023-12-22T09:14:46;19.05;;;5.65;;
67556;SDS011;54387;53.526;49.300;2023-12-22T09:17:12;16.95;;;5.93;;
67556;SDS011;54387;53.526;49.300;2023-12-22T09:19:41;14.27;;;5.05;;
67556;SDS011;54387;53.526;49.300;2023-12-22T09:22:08;18.52;;;5.45;;
67556;SDS011;54387;53.526;49.300;2023-12-22T09:24:34;12.55;;;4.70;;
67556;SDS011;54387;53.526;49.300;2023-12-22T09:27:01;14.88;;;6.00;;
67556;SDS011;54387;53.526;49.300;2023-12-22T09:29:31;11.95;;;5.30;;
67556;SDS011;54387;53.526;49.300;2023-12-22T09:31:59;16.48;;;6.45;;
67556;SDS011;54387;53.526;49.300;2023-12-22T09:34:26;13.13;;;5.75;;
67556;SDS011;54387;53.526;49.300;2023-12-22T09:36:54;21.92;;;8.00;;
67556;SDS011;54387;53.526;49.300;2023-12-22T09:39:21;12.07;;;5.95;;
67556;SDS011;54387;53.526;49.300;2023-12-22T09:41:48;21.20;;;6.90;;
67556;SDS011;54387;53.526;49.300;2023-12-22T09:44:19;14.68;;;6.68;;
67556;SDS011;54387;53.526;49.300;2023-12-22T09:46:49;15.02;;;5.40;;
67556;SDS011;54387;53.526;49.300;2023-12-22T09:49:16;15.95;;;6.55;;
67556;SDS011;54387;53.526;49.300;2023-12-22T09:51:44;11.82;;;6.03;;
67556;SDS011;54387;53.526;49.300;2023-12-22T09:54:11;16.27;;;7.70;;
67556;SDS011;54387;53.526;49.300;2023-12-22T09:56:38;23.00;;;7.60;;
67556;SDS011;54387;53.526;49.300;2023-12-22T09:59:11;18.90;;;8.25;;
67556;SDS011;54387;53.526;49.300;2023-12-22T10:01:40;23.98;;;7.18;;
67556;SDS011;54387;53.526;49.300;2023-12-22T10:04:14;22.88;;;6.50;;
67556;SDS011;54387;53.526;49.300;2023-12-22T10:06:41;23.40;;;6.50;;
67556;SDS011;54387;53.526;49.300;2023-12-22T10:09:07;20.10;;;6.90;;
67556;SDS011;54387;53.526;49.300;2023-12-22T10:11:38;16.02;;;5.57;;
67556;SDS011;54387;53.526;49.300;2023-12-22T10:14:06;13.52;;;5.65;;
67556;SDS011;54387;53.526;49.300;2023-12-22T10:16:34;14.18;;;5.60;;
67556;SDS011;54387;53.526;49.300;2023-12-22T10:19:02;15.85;;;5.78;;
67556;SDS011;54387;53.526;49.300;2023-12-22T10:21:29;20.02;;;6.60;;
67556;SDS011;54387;53.526;49.300;2023-12-22T10:23:56;12.80;;;5.15;;
67556;SDS011;54387;53.526;49.300;2023-12-22T10:26:23;21.40;;;6.20;;
67556;SDS011;54387;53.526;49.300;2023-12-22T10:28:49;11.85;;;5.05;;
67556;SDS011;54387;53.526;49.300;2023-12-22T10:31:16;18.27;;;6.82;;
67556;SDS011;54387;53.526;49.300;2023-12-22T10:33:43;16.30;;;6.63;;
67556;SDS011;54387;53.526;49.300;2023-12-22T10:36:10;17.48;;;6.35;;
67556;SDS011;54387;53.526;49.300;2023-12-22T10:38:37;15.25;;;5.97;;
67556;SDS011;54387;53.526;49.300;2023-12-22T10:41:05;18.48;;;6.25;;
67556;SDS011;54387;53.526;49.300;2023-12-22T10:43:39;12.95;;;4.28;;
67556;SDS011;54387;53.526;49.300;2023-12-22T10:46:06;16.38;;;5.38;;
67556;SDS011;54387;53.526;49.300;2023-12-22T10:48:36;20.65;;;6.60;;
67556;SDS011;54387;53.526;49.300;2023-12-22T10:51:02;18.23;;;6.43;;
67556;SDS011;54387;53.526;49.300;2023-12-22T10:53:34;18.35;;;7.35;;
67556;SDS011;54387;53.526;49.300;2023-12-22T10:56:00;19.10;;;6.68;;
67556;SDS011;54387;53.526;49.300;2023-12-22T10:58:28;19.27;;;7.13;;
67556;SDS011;54387;53.526;49.300;2023-12-22T11:00:54;18.17;;;6.60;;
67556;SDS011;54387;53.526;49.300;2023-12-22T11:03:21;14.80;;;6.55;;
67556;SDS011;54387;53.526;49.300;2023-12-22T11:05:52;16.85;;;6.55;;
67556;SDS011;54387;53.526;49.300;2023-12-22T11:08:23;14.95;;;5.75;;
67556;SDS011;54387;53.526;49.300;2023-12-22T11:10:52;18.63;;;6.93;;
67556;SDS011;54387;53.526;49.300;2023-12-22T11:13:24;20.27;;;5.97;;
67556;SDS011;54387;53.526;49.300;2023-12-22T11:15:50;14.48;;;6.22;;
67556;SDS011;54387;53.526;49.300;2023-12-22T11:18:20;14.75;;;6.45;;
67556;SDS011;54387;53.526;49.300;2023-12-22T11:20:48;15.52;;;5.63;;
67556;SDS011;54387;53.526;49.300;2023-12-22T11:23:15;13.88;;;5.55;;
67556;SDS011;54387;53.526;49.300;2023-12-22T11:25:44;15.88;;;6.10;;
67556;SDS011;54387;53.526;49.300;2023-12-22T11:28:17;16.40;;;7.18;;
67556;SDS011;54387;53.526;49.300;2023-12-22T11:30:48;16.45;;;5.75;;
67556;SDS011;54387;53.526;49.300;2023-12-22T11:33:18;13.40;;;5.13;;
67556;SDS011;54387;53.526;49.300;2023-12-22T11:35:46;13.95;;;5.05;;
67556;SDS011;54387;53.526;49.300;2023-12-22T11:38:12;17.05;;;6.30;;
67556;SDS011;54387;53.526;49.300;2023-12-22T11:40:39;14.10;;;5.55;;
67556;SDS011;54387;53.526;49.300;2023-12-22T11:43:06;9.13;;;4.35;;
67556;SDS011;54387;53.526;49.300;2023-12-22T11:45:33;10.70;;;4.97;;
67556;SDS011;54387;53.526;49.300;2023-12-22T11:48:08;12.93;;;4.43;;
67556;SDS011;54387;53.526;49.300;2023-12-22T11:50:35;9.20;;;4.35;;
67556;SDS011;54387;53.526;49.300;2023-12-22T11:53:24;10.45;;;4.10;;
67556;SDS011;54387;53.526;49.300;2023-12-22T11:56:03;10.73;;;4.78;;
67556;SDS011;54387;53.526;49.300;2023-12-22T11:58:34;7.78;;;3.33;;
67556;SDS011;54387;53.526;49.300;2023-12-22T12:01:06;10.30;;;3.45;;
67556;SDS011;54387;53.526;49.300;2023-12-22T12:03:38;6.97;;;3.30;;
67556;SDS011;54387;53.526;49.300;2023-12-22T12:06:31;7.97;;;3.80;;
67556;SDS011;54387;53.526;49.300;2023-12-22T12:08:58;8.68;;;3.33;;
67556;SDS011;54387;53.526;49.300;2023-12-22T12:14:33;7.80;;;2.38;;
67556;SDS011;54387;53.526;49.300;2023-12-22T12:17:07;5.18;;;2.40;;
67556;SDS011;54387;53.526;49.300;2023-12-22T12:19:35;5.50;;;2.60;;
67556;SDS011;54387;53.526;49.300;2023-12-22T12:22:04;5.40;;;2.70;;
67556;SDS011;54387;53.526;49.300;2023-12-22T12:24:31;10.23;;;3.88;;
67556;SDS011;54387;53.526;49.300;2023-12-22T12:26:57;7.20;;;3.38;;
67556;SDS011;54387;53.526;49.300;2023-12-22T12:29:24;6.15;;;3.30;;
67556;SDS011;54387;53.526;49.300;2023-12-22T12:31:50;6.53;;;3.05;;
67556;SDS011;54387;53.526;49.300;2023-12-22T12:34:17;11.30;;;2.55;;
67556;SDS011;54387;53.526;49.300;2023-12-22T12:36:47;8.15;;;2.65;;
67556;SDS011;54387;53.526;49.300;2023-12-22T12:39:14;6.97;;;2.92;;
67556;SDS011;54387;53.526;49.300;2023-12-22T12:41:41;10.45;;;5.45;;
67556;SDS011;54387;53.526;49.300;2023-12-22T12:44:12;6.30;;;2.63;;
67556;SDS011;54387;53.526;49.300;2023-12-22T12:46:40;6.47;;;3.22;;
67556;SDS011;54387;53.526;49.300;2023-12-22T12:49:08;6.15;;;2.25;;
67556;SDS011;54387;53.526;49.300;2023-12-22T12:54:13;5.13;;;2.42;;
67556;SDS011;54387;53.526;49.300;2023-12-22T12:56:41;11.43;;;2.30;;
67556;SDS011;54387;53.526;49.300;2023-12-22T12:59:16;6.75;;;2.42;;
67556;SDS011;54387;53.526;49.300;2023-12-22T13:01:46;7.20;;;2.60;;
67556;SDS011;54387;53.526;49.300;2023-12-22T13:04:14;5.60;;;2.50;;
67556;SDS011;54387;53.526;49.300;2023-12-22T13:09:10;5.15;;;1.67;;
67556;SDS011;54387;53.526;49.300;2023-12-22T13:11:38;7.13;;;2.20;;
67556;SDS011;54387;53.526;49.300;2023-12-22T13:14:09;8.25;;;2.60;;
67556;SDS011;54387;53.526;49.300;2023-12-22T13:16:35;5.60;;;2.20;;
67556;SDS011;54387;53.526;49.300;2023-12-22T13:19:03;6.90;;;2.53;;
67556;SDS011;54387;53.526;49.300;2023-12-22T13:21:30;5.85;;;2.25;;
67556;SDS011;54387;53.526;49.300;2023-12-22T13:24:12;5.45;;;2.40;;
67556;SDS011;54387;53.526;49.300;2023-12-22T13:26:39;6.03;;;2.53;;
67556;SDS011;54387;53.526;49.300;2023-12-22T13:29:06;7.18;;;2.30;;
67556;SDS011;54387;53.526;49.300;2023-12-22T13:31:35;6.68;;;2.70;;
67556;SDS011;54387;53.526;49.300;2023-12-22T13:34:03;11.40;;;2.65;;
67556;SDS011;54387;53.526;49.300;2023-12-22T13:36:34;5.60;;;3.22;;
67556;SDS011;54387;53.526;49.300;2023-12-22T13:39:05;8.18;;;2.63;;
67556;SDS011;54387;53.526;49.300;2023-12-22T13:41:33;7.82;;;2.72;;
67556;SDS011;54387;53.526;49.300;2023-12-22T13:44:06;6.90;;;3.20;;
67556;SDS011;54387;53.526;49.300;2023-12-22T13:46:32;7.38;;;2.45;;
67556;SDS011;54387;53.526;49.300;2023-12-22T13:49:03;8.07;;;3.05;;
67556;SDS011;54387;53.526;49.300;2023-12-22T13:51:42;11.43;;;3.05;;
67556;SDS011;54387;53.526;49.300;2023-12-22T13:54:10;10.38;;;4.18;;
67556;SDS011;54387;53.526;49.300;2023-12-22T13:56:37;7.65;;;2.92;;
67556;SDS011;54387;53.526;49.300;2023-12-22T13:59:07;11.13;;;3.75;;
67556;SDS011;54387;53.526;49.300;2023-12-22T14:01:33;9.75;;;3.15;;
67556;SDS011;54387;53.526;49.300;2023-12-22T14:04:00;8.10;;;3.22;;
67556;SDS011;54387;53.526;49.300;2023-12-22T14:06:26;7.78;;;2.42;;
67556;SDS011;54387;53.526;49.300;2023-12-22T14:08:53;6.40;;;3.28;;
67556;SDS011;54387;53.526;49.300;2023-12-22T14:11:19;8.07;;;4.00;;
67556;SDS011;54387;53.526;49.300;2023-12-22T14:13:46;10.35;;;3.30;;
67556;SDS011;54387;53.526;49.300;2023-12-22T14:16:13;9.48;;;3.50;;
67556;SDS011;54387;53.526;49.300;2023-12-22T14:18:43;9.07;;;3.40;;
67556;SDS011;54387;53.526;49.300;2023-12-22T14:21:11;10.05;;;3.28;;
67556;SDS011;54387;53.526;49.300;2023-12-22T14:23:37;8.57;;;3.50;;
67556;SDS011;54387;53.526;49.300;2023-12-22T14:26:03;7.50;;;3.60;;
67556;SDS011;54387;53.526;49.300;2023-12-22T14:28:31;10.32;;;3.80;;
67556;SDS011;54387;53.526;49.300;2023-12-22T14:30:57;8.93;;;3.40;;
67556;SDS011;54387;53.526;49.300;2023-12-22T14:33:23;10.63;;;4.18;;
67556;SDS011;54387;53.526;49.300;2023-12-22T14:35:49;10.02;;;3.67;;
67556;SDS011;54387;53.526;49.300;2023-12-22T14:38:16;7.03;;;3.88;;